Time;durP1;ratioP1;P1;durP2;ratioP2;P2;SDS_P1;SDS_P2;PMS_P1;PMS_P2;Temp;Humidity;BMP_temperature;BMP_pressure;BME280_temperature;BME280_humidity;BME280_pressure;Samples;Min_cycle;Max_cycle;Signal;HPM_P1;HPM_P2
2023/05/29 00:01:18;;;;;;;7.05;3.50;;;18.80;99.90;;;;;;7385925;19;20142;-75
2023/05/29 00:03:44;;;;;;;6.43;3.38;;;18.40;99.90;;;;;;7383048;19;20565;-75
2023/05/29 00:06:10;;;;;;;5.47;3.80;;;18.60;99.90;;;;;;7385166;19;20131;-75
2023/05/29 00:08:36;;;;;;;8.80;3.75;;;18.60;99.90;;;;;;7388692;19;20157;-76
2023/05/29 00:11:02;;;;;;;6.38;3.50;;;18.40;99.90;;;;;;7387877;19;20138;-75
2023/05/29 00:13:28;;;;;;;7.18;4.07;;;18.30;99.90;;;;;;7385133;19;20142;-75
2023/05/29 00:15:53;;;;;;;7.63;4.03;;;18.40;99.90;;;;;;7388745;19;20130;-76
2023/05/29 00:18:19;;;;;;;5.57;3.70;;;18.40;99.90;;;;;;7386694;19;20422;-76
2023/05/29 00:20:45;;;;;;;5.55;3.45;;;18.60;99.90;;;;;;7388086;19;20131;-75
2023/05/29 00:23:10;;;;;;;5.60;3.60;;;18.60;99.90;;;;;;7387043;19;20130;-75
2023/05/29 00:25:36;;;;;;;5.68;3.88;;;18.30;99.90;;;;;;7389341;19;20146;-75
2023/05/29 00:28:04;;;;;;;5.55;3.28;;;18.40;99.90;;;;;;7387354;19;20201;-76
2023/05/29 00:30:29;;;;;;;5.75;3.63;;;18.50;99.90;;;;;;7388365;19;20131;-76
2023/05/29 00:32:56;;;;;;;6.70;4.00;;;18.60;99.90;;;;;;7386013;19;20138;-75
2023/05/29 00:35:22;;;;;;;6.47;4.28;;;18.60;99.90;;;;;;7388401;19;20156;-74
2023/05/29 00:37:48;;;;;;;6.15;4.10;;;18.70;99.90;;;;;;7388136;19;20567;-76
2023/05/29 00:40:13;;;;;;;6.13;3.38;;;18.70;99.90;;;;;;7387535;19;20142;-76
2023/05/29 00:42:39;;;;;;;6.95;3.72;;;18.70;99.90;;;;;;7385124;19;20143;-76
2023/05/29 00:45:06;;;;;;;5.25;3.10;;;18.80;99.90;;;;;;7387535;19;20156;-76
2023/05/29 00:47:32;;;;;;;6.05;3.63;;;18.50;99.90;;;;;;7387843;19;20158;-76
2023/05/29 00:49:58;;;;;;;6.72;3.65;;;18.30;99.90;;;;;;7388688;19;20901;-76
2023/05/29 00:52:25;;;;;;;5.72;3.15;;;18.30;99.90;;;;;;7386969;19;20898;-75
2023/05/29 00:54:51;;;;;;;5.35;3.60;;;18.10;99.90;;;;;;7388739;19;20152;-75
2023/05/29 00:57:18;;;;;;;4.97;3.53;;;18.10;99.90;;;;;;7386669;19;20792;-75
2023/05/29 00:59:45;;;;;;;6.80;2.95;;;18.20;99.90;;;;;;7386616;19;20150;-75
2023/05/29 01:02:16;;;;;;;6.30;3.33;;;18.10;99.90;;;;;;7383679;19;20202;-76
2023/05/29 01:04:45;;;;;;;4.97;2.83;;;18.20;99.90;;;;;;7386604;19;20154;-76
2023/05/29 01:07:10;;;;;;;5.82;3.60;;;18.20;99.90;;;;;;7387690;19;20135;-75
2023/05/29 01:09:36;;;;;;;5.82;3.20;;;18.10;99.90;;;;;;7386694;19;20134;-75
2023/05/29 01:12:08;;;;;;;5.82;3.60;;;18.10;99.90;;;;;;7386544;19;20186;-76
2023/05/29 01:14:40;;;;;;;4.40;3.00;;;18.30;99.90;;;;;;7388722;19;20134;-76
2023/05/29 01:17:26;;;;;;;5.82;3.55;;;18.30;99.90;;;;;;7387004;19;20168;-76
2023/05/29 01:20:13;;;;;;;5.90;3.42;;;18.40;99.90;;;;;;7387888;19;20150;-77
2023/05/29 01:23:09;;;;;;;5.65;3.40;;;18.50;99.90;;;;;;7388126;19;20138;-77
2023/05/29 01:26:25;;;;;;;6.47;3.45;;;18.40;99.90;;;;;;7390516;19;20135;-76
2023/05/29 01:28:53;;;;;;;4.72;2.83;;;18.40;99.90;;;;;;7382993;19;20146;-76
2023/05/29 01:31:25;;;;;;;6.82;3.17;;;18.50;99.90;;;;;;7386037;19;20138;-75
2023/05/29 01:33:58;;;;;;;4.85;3.22;;;18.40;99.90;;;;;;7384066;19;20138;-76
2023/05/29 01:36:24;;;;;;;5.97;3.00;;;18.40;99.90;;;;;;7385228;19;20218;-75
2023/05/29 01:38:55;;;;;;;5.10;3.55;;;18.30;99.90;;;;;;7387965;19;20146;-75
2023/05/29 01:41:22;;;;;;;6.30;3.33;;;18.30;99.90;;;;;;7386275;19;20130;-76
2023/05/29 01:43:50;;;;;;;7.00;3.30;;;18.30;99.90;;;;;;7387115;19;20230;-76
2023/05/29 01:46:17;;;;;;;5.55;2.97;;;18.20;99.90;;;;;;7382126;19;20137;-78
2023/05/29 01:48:45;;;;;;;5.13;3.22;;;18.20;99.90;;;;;;7384947;19;20174;-77
2023/05/29 01:51:12;;;;;;;6.20;3.20;;;18.20;99.90;;;;;;7386861;19;20157;-76
2023/05/29 01:53:39;;;;;;;7.90;3.40;;;18.20;99.90;;;;;;7383118;19;20206;-75
2023/05/29 01:56:06;;;;;;;6.15;3.45;;;18.00;99.90;;;;;;7385595;19;20590;-76
2023/05/29 01:58:34;;;;;;;3.42;2.92;;;18.00;99.90;;;;;;7381206;19;20142;-76
2023/05/29 02:01:01;;;;;;;6.82;3.58;;;18.00;99.90;;;;;;7386079;19;20151;-76
2023/05/29 02:03:28;;;;;;;7.88;4.30;;;18.00;99.90;;;;;;7385415;19;20134;-76
2023/05/29 02:05:56;;;;;;;5.00;3.33;;;18.00;99.90;;;;;;7384043;19;20238;-77
2023/05/29 02:08:22;;;;;;;7.18;3.17;;;17.90;99.90;;;;;;7384331;19;20246;-75
2023/05/29 02:10:48;;;;;;;4.90;3.40;;;17.90;99.90;;;;;;7385030;19;20178;-75
2023/05/29 02:13:14;;;;;;;6.43;3.20;;;17.90;99.90;;;;;;7383298;19;20146;-75
2023/05/29 02:15:40;;;;;;;5.30;2.85;;;17.90;99.90;;;;;;7387973;19;20138;-75
2023/05/29 02:18:14;;;;;;;4.40;3.10;;;17.80;99.90;;;;;;7386760;19;20186;-76
2023/05/29 02:20:40;;;;;;;5.25;3.13;;;17.90;99.90;;;;;;7385597;19;20160;-75
2023/05/29 02:23:09;;;;;;;6.30;3.20;;;17.80;99.90;;;;;;7384923;19;20772;-74
2023/05/29 02:25:36;;;;;;;5.10;3.28;;;17.80;99.90;;;;;;7387728;19;20725;-75
2023/05/29 02:28:02;;;;;;;5.28;3.22;;;17.70;99.90;;;;;;7385537;19;20164;-75
2023/05/29 02:30:28;;;;;;;5.32;3.13;;;17.80;99.90;;;;;;7386042;19;20229;-76
2023/05/29 02:32:54;;;;;;;5.07;3.00;;;17.70;99.90;;;;;;7383566;19;20142;-76
2023/05/29 02:35:22;;;;;;;4.18;3.13;;;17.80;99.90;;;;;;7385695;19;20182;-75
2023/05/29 02:37:49;;;;;;;7.53;3.53;;;17.80;99.90;;;;;;7385378;19;20134;-75
2023/05/29 02:40:15;;;;;;;5.85;2.85;;;17.70;99.90;;;;;;7384732;19;20294;-76
2023/05/29 02:42:40;;;;;;;6.60;3.47;;;17.70;99.90;;;;;;7382412;19;20598;-76
2023/05/29 02:45:07;;;;;;;4.97;3.15;;;17.70;99.90;;;;;;7385634;19;20150;-75
2023/05/29 02:47:32;;;;;;;5.88;3.25;;;17.60;99.90;;;;;;7385946;19;20282;-76
2023/05/29 02:49:58;;;;;;;6.20;3.33;;;17.60;99.90;;;;;;7385859;19;20138;-76
2023/05/29 02:52:24;;;;;;;5.38;3.67;;;17.60;99.90;;;;;;7384259;19;20150;-74
2023/05/29 02:54:50;;;;;;;5.82;3.60;;;17.60;99.90;;;;;;7386309;19;20150;-75
2023/05/29 02:57:15;;;;;;;5.55;3.40;;;17.50;99.90;;;;;;7384591;19;20574;-75
2023/05/29 02:59:44;;;;;;;5.47;3.33;;;17.50;99.90;;;;;;7388634;19;20127;-75
2023/05/29 03:02:09;;;;;;;6.03;3.30;;;17.40;99.90;;;;;;7385612;19;20492;-76
2023/05/29 03:04:35;;;;;;;4.53;3.15;;;17.50;99.90;;;;;;7387190;19;20139;-76
2023/05/29 03:07:01;;;;;;;5.38;2.90;;;17.40;99.90;;;;;;7385636;19;20590;-76
2023/05/29 03:09:29;;;;;;;3.83;2.63;;;17.40;99.90;;;;;;7388087;19;20177;-76
2023/05/29 03:11:55;;;;;;;5.95;3.33;;;17.30;99.90;;;;;;7387592;19;20142;-75
2023/05/29 03:14:21;;;;;;;4.85;3.20;;;17.20;99.90;;;;;;7395847;19;20199;-75
2023/05/29 03:16:47;;;;;;;6.30;3.45;;;17.30;99.90;;;;;;7401368;19;20253;-76
2023/05/29 03:19:13;;;;;;;5.07;3.20;;;17.20;99.90;;;;;;7403219;19;20161;-74
2023/05/29 03:21:39;;;;;;;4.15;3.10;;;17.20;99.90;;;;;;7402320;19;20142;-75
2023/05/29 03:24:05;;;;;;;8.02;3.65;;;17.10;99.90;;;;;;7405562;19;20131;-76
2023/05/29 03:26:31;;;;;;;4.22;3.00;;;17.10;99.90;;;;;;7409755;19;20131;-77
2023/05/29 03:28:56;;;;;;;5.63;3.25;;;17.10;99.90;;;;;;7411372;19;20132;-76
2023/05/29 03:31:22;;;;;;;7.28;3.67;;;17.10;99.90;;;;;;7410728;19;20123;-75
2023/05/29 03:33:49;;;;;;;5.03;3.03;;;17.10;99.90;;;;;;7409535;19;20123;-76
2023/05/29 03:36:16;;;;;;;5.80;3.15;;;17.10;99.90;;;;;;7394031;19;20144;-75
2023/05/29 03:38:43;;;;;;;4.28;3.03;;;17.10;99.90;;;;;;7391985;19;20155;-76
2023/05/29 03:41:09;;;;;;;10.52;3.70;;;16.90;99.90;;;;;;7391252;19;20150;-76
2023/05/29 03:43:36;;;;;;;5.95;2.80;;;17.00;99.90;;;;;;7389641;19;20258;-76
2023/05/29 03:46:01;;;;;;;7.03;3.55;;;17.00;99.90;;;;;;7388485;19;20139;-76
2023/05/29 03:48:27;;;;;;;5.50;3.13;;;17.00;99.90;;;;;;7390777;19;20222;-75
2023/05/29 03:50:53;;;;;;;5.75;3.00;;;17.00;99.90;;;;;;7389654;19;20166;-76
2023/05/29 03:53:19;;;;;;;4.10;2.60;;;17.20;99.90;;;;;;7388375;19;20283;-76
2023/05/29 03:55:45;;;;;;;5.18;3.28;;;17.00;99.90;;;;;;7389632;19;20151;-76
2023/05/29 03:58:12;;;;;;;5.53;3.33;;;16.60;99.90;;;;;;7391701;19;20156;-76
2023/05/29 04:00:38;;;;;;;5.95;3.25;;;16.50;99.90;;;;;;7391099;19;20142;-76
2023/05/29 04:03:04;;;;;;;6.20;2.95;;;16.50;99.90;;;;;;7388570;19;20150;-76
2023/05/29 04:05:30;;;;;;;5.90;3.35;;;16.70;99.90;;;;;;7385788;19;20149;-75
2023/05/29 04:07:56;;;;;;;6.50;3.45;;;16.80;99.90;;;;;;7388285;19;20171;-75
2023/05/29 04:10:23;;;;;;;6.30;3.15;;;16.90;99.90;;;;;;7388567;19;20139;-76
2023/05/29 04:12:49;;;;;;;5.85;3.17;;;17.00;99.90;;;;;;7389046;19;20139;-76
2023/05/29 04:15:15;;;;;;;7.45;2.60;;;17.00;99.90;;;;;;7388172;19;20140;-76
2023/05/29 04:17:40;;;;;;;4.32;3.22;;;16.90;99.90;;;;;;7389594;19;20599;-76
2023/05/29 04:20:08;;;;;;;8.45;2.90;;;16.90;99.90;;;;;;7389955;19;20178;-76
2023/05/29 04:22:37;;;;;;;5.10;2.88;;;16.80;99.90;;;;;;7389156;19;20171;-75
2023/05/29 04:25:04;;;;;;;5.18;3.53;;;16.90;99.90;;;;;;7388970;19;20184;-74
2023/05/29 04:27:36;;;;;;;6.03;3.13;;;16.90;99.90;;;;;;7388521;19;20562;-74
2023/05/29 04:30:06;;;;;;;4.97;2.83;;;16.90;99.90;;;;;;7389205;19;20210;-75
2023/05/29 04:32:33;;;;;;;5.07;3.13;;;16.90;99.90;;;;;;7385357;19;20163;-76
2023/05/29 04:35:02;;;;;;;6.57;3.10;;;16.90;99.90;;;;;;7388165;19;21479;-75
2023/05/29 04:37:37;;;;;;;4.47;3.40;;;16.90;99.90;;;;;;7386036;19;20287;-76
2023/05/29 04:40:08;;;;;;;4.68;2.92;;;16.90;99.90;;;;;;7389753;19;20142;-76
2023/05/29 04:42:41;;;;;;;5.05;2.90;;;16.90;99.90;;;;;;7385111;19;20483;-76
2023/05/29 04:45:10;;;;;;;4.22;3.35;;;16.90;99.90;;;;;;7388988;19;20142;-75
2023/05/29 04:47:43;;;;;;;4.93;3.28;;;16.90;99.90;;;;;;7388446;19;20138;-75
2023/05/29 04:50:16;;;;;;;4.90;3.25;;;17.00;99.90;;;;;;7387171;19;20150;-75
2023/05/29 04:52:43;;;;;;;6.10;3.30;;;16.90;99.90;;;;;;7388999;19;20143;-75
2023/05/29 04:55:10;;;;;;;5.78;2.63;;;16.90;99.90;;;;;;7387409;19;20226;-75
2023/05/29 04:57:36;;;;;;;6.10;3.20;;;17.10;99.90;;;;;;7387915;19;20141;-75
2023/05/29 05:00:06;;;;;;;5.82;2.90;;;17.00;99.90;;;;;;7386931;19;20165;-75
2023/05/29 05:02:32;;;;;;;5.60;3.30;;;17.00;99.90;;;;;;7387543;19;20135;-75
2023/05/29 05:04:58;;;;;;;5.25;3.30;;;17.10;99.90;;;;;;7387338;19;20593;-74
2023/05/29 05:07:24;;;;;;;4.90;3.15;;;17.10;99.90;;;;;;7388387;19;20146;-76
2023/05/29 05:09:50;;;;;;;5.63;3.53;;;17.10;99.90;;;;;;7387352;19;20145;-76
2023/05/29 05:12:16;;;;;;;7.18;3.78;;;17.10;99.90;;;;;;7386553;19;20214;-75
2023/05/29 05:14:42;;;;;;;7.32;3.50;;;16.90;99.90;;;;;;7389431;19;20138;-75
2023/05/29 05:17:08;;;;;;;5.45;3.17;;;17.00;99.90;;;;;;7386115;19;20781;-75
2023/05/29 05:19:33;;;;;;;4.82;3.50;;;17.10;99.90;;;;;;7387724;19;20135;-76
2023/05/29 05:21:59;;;;;;;11.57;3.80;;;17.10;99.90;;;;;;7385742;19;20134;-75
2023/05/29 05:24:25;;;;;;;4.10;3.20;;;17.10;99.90;;;;;;7386631;19;20130;-75
2023/05/29 05:26:50;;;;;;;5.88;3.15;;;17.20;99.90;;;;;;7386496;19;20149;-75
2023/05/29 05:29:16;;;;;;;4.95;3.22;;;17.40;99.90;;;;;;7384958;19;20139;-75
2023/05/29 05:31:42;;;;;;;6.63;3.30;;;17.20;99.90;;;;;;7387073;19;20919;-76
2023/05/29 05:34:07;;;;;;;4.90;3.28;;;17.00;99.90;;;;;;7384343;19;20214;-75
2023/05/29 05:36:33;;;;;;;6.03;3.55;;;17.10;99.90;;;;;;7386454;19;20602;-75
2023/05/29 05:38:59;;;;;;;6.57;3.15;;;17.20;99.90;;;;;;7385905;19;20653;-76
2023/05/29 05:41:25;;;;;;;6.15;3.38;;;17.20;99.90;;;;;;7387485;19;20588;-75
2023/05/29 05:43:50;;;;;;;5.25;3.25;;;17.30;99.90;;;;;;7386092;19;20150;-75
2023/05/29 05:46:17;;;;;;;7.38;3.58;;;17.40;99.90;;;;;;7385346;19;20173;-76
2023/05/29 05:48:43;;;;;;;3.92;3.13;;;17.50;99.90;;;;;;7382033;19;20489;-79
2023/05/29 05:51:11;;;;;;;6.40;3.63;;;17.60;99.90;;;;;;7383875;19;20149;-78
2023/05/29 05:53:37;;;;;;;4.07;3.08;;;17.60;99.90;;;;;;7381224;19;20543;-77
2023/05/29 05:56:02;;;;;;;4.53;3.15;;;17.60;99.90;;;;;;7382820;19;20241;-78
2023/05/29 05:58:28;;;;;;;5.65;3.22;;;17.60;99.90;;;;;;7384711;19;20696;-78
2023/05/29 06:00:54;;;;;;;6.40;3.65;;;17.60;99.90;;;;;;7384622;19;20164;-77
2023/05/29 06:03:20;;;;;;;5.55;3.22;;;17.70;99.90;;;;;;7383820;19;20142;-79
2023/05/29 06:05:47;;;;;;;6.93;3.00;;;17.70;99.90;;;;;;7386006;19;20134;-79
2023/05/29 06:08:13;;;;;;;5.05;3.30;;;17.70;99.90;;;;;;7384746;19;20142;-79
2023/05/29 06:10:39;;;;;;;7.28;3.20;;;17.70;99.90;;;;;;7387522;19;20127;-78
2023/05/29 06:13:04;;;;;;;5.90;3.03;;;17.70;99.90;;;;;;7383916;19;20590;-79
2023/05/29 06:15:30;;;;;;;5.70;3.53;;;19.00;99.90;;;;;;7385499;19;20135;-77
2023/05/29 06:17:56;;;;;;;7.45;4.20;;;20.90;99.90;;;;;;7388421;19;20126;-77
2023/05/29 06:20:23;;;;;;;9.02;4.55;;;22.60;99.90;;;;;;7388072;19;20122;-78
2023/05/29 06:22:50;;;;;;;4.75;3.45;;;23.80;98.90;;;;;;7385814;19;20598;-78
2023/05/29 06:25:19;;;;;;;7.43;3.28;;;24.70;96.80;;;;;;7384716;19;20156;-77
2023/05/29 06:27:45;;;;;;;8.38;3.90;;;25.20;95.80;;;;;;7384606;19;20172;-77
2023/05/29 06:30:12;;;;;;;8.43;3.72;;;26.00;94.10;;;;;;7383408;19;20159;-78
2023/05/29 06:32:41;;;;;;;4.45;3.22;;;26.40;92.90;;;;;;7372486;19;20508;-78
2023/05/29 06:35:07;;;;;;;6.47;4.70;;;26.70;92.20;;;;;;7368654;19;20158;-77
2023/05/29 06:37:33;;;;;;;4.68;3.22;;;26.80;91.30;;;;;;7381554;19;21224;-77
2023/05/29 06:39:58;;;;;;;8.10;3.70;;;26.50;91.50;;;;;;7378488;19;20524;-78
2023/05/29 06:42:24;;;;;;;9.52;4.28;;;26.60;91.00;;;;;;7377084;19;20178;-77
2023/05/29 06:44:50;;;;;;;6.53;3.22;;;26.60;90.90;;;;;;7371022;19;20202;-77
2023/05/29 06:47:16;;;;;;;4.68;2.88;;;26.30;91.10;;;;;;7382688;19;20142;-77
2023/05/29 06:49:42;;;;;;;5.22;3.00;;;26.30;91.00;;;;;;7382161;19;20930;-75
2023/05/29 06:52:07;;;;;;;4.90;3.30;;;26.30;90.70;;;;;;7381762;19;20210;-77
2023/05/29 06:54:33;;;;;;;6.22;3.78;;;25.90;90.60;;;;;;7372501;19;20134;-76
2023/05/29 06:56:59;;;;;;;3.78;3.17;;;25.50;91.10;;;;;;7368368;19;20131;-77
2023/05/29 06:59:25;;;;;;;4.95;3.40;;;25.20;91.40;;;;;;7387174;19;20139;-77
2023/05/29 07:01:50;;;;;;;4.68;2.95;;;24.90;91.80;;;;;;7383240;19;20250;-76
2023/05/29 07:04:16;;;;;;;4.75;3.15;;;24.50;92.40;;;;;;7374337;19;20130;-78
2023/05/29 07:06:42;;;;;;;5.28;3.28;;;24.20;93.00;;;;;;7373936;19;20153;-78
2023/05/29 07:09:08;;;;;;;5.30;3.20;;;24.00;93.60;;;;;;7375874;19;20134;-78
2023/05/29 07:11:34;;;;;;;5.57;3.03;;;23.70;94.10;;;;;;7379486;19;20156;-77
2023/05/29 07:14:00;;;;;;;4.03;2.88;;;23.90;94.40;;;;;;7385164;19;20167;-79
2023/05/29 07:16:26;;;;;;;3.58;2.85;;;23.80;94.60;;;;;;7386317;19;20585;-79
2023/05/29 07:18:52;;;;;;;6.30;2.85;;;23.80;94.60;;;;;;7383010;19;20502;-76
2023/05/29 07:21:18;;;;;;;6.40;3.50;;;23.90;94.60;;;;;;7387871;19;21191;-75
2023/05/29 07:23:44;;;;;;;3.88;2.58;;;23.90;94.60;;;;;;7391341;19;20160;-74
2023/05/29 07:26:10;;;;;;;4.97;2.78;;;24.30;94.00;;;;;;7386249;19;20143;-76
2023/05/29 07:28:36;;;;;;;5.47;3.22;;;24.80;93.40;;;;;;7388915;19;20159;-76
2023/05/29 07:31:02;;;;;;;6.88;2.95;;;24.90;92.90;;;;;;7388588;19;20156;-76
2023/05/29 07:33:28;;;;;;;5.13;2.80;;;24.70;93.00;;;;;;7382763;19;20127;-76
2023/05/29 07:35:54;;;;;;;5.85;3.15;;;24.80;92.80;;;;;;7390824;19;20157;-79
2023/05/29 07:38:19;;;;;;;4.40;2.60;;;24.70;92.80;;;;;;7391163;19;20175;-78
2023/05/29 07:40:45;;;;;;;4.38;2.70;;;24.50;92.90;;;;;;7389352;19;20152;-80
2023/05/29 07:43:11;;;;;;;3.38;2.40;;;24.40;92.90;;;;;;7385729;19;20171;-79
2023/05/29 07:45:37;;;;;;;4.72;2.67;;;24.30;92.90;;;;;;7377134;19;20613;-79
2023/05/29 07:48:02;;;;;;;4.50;2.83;;;24.60;93.10;;;;;;7384241;19;20148;-79
2023/05/29 07:50:37;;;;;;;3.28;2.60;;;25.20;92.00;;;;;;7376382;19;20149;-82
2023/05/29 07:53:03;;;;;;;4.45;2.83;;;25.00;91.90;;;;;;7377206;19;20146;-80
2023/05/29 07:55:29;;;;;;;4.28;2.40;;;25.00;91.70;;;;;;7387207;19;20465;-78
2023/05/29 07:57:55;;;;;;;4.63;3.00;;;25.00;91.70;;;;;;7387089;19;20146;-77
2023/05/29 08:00:21;;;;;;;4.63;2.70;;;25.00;91.30;;;;;;7386391;19;20142;-79
2023/05/29 08:02:47;;;;;;;3.80;2.72;;;24.70;91.40;;;;;;7387196;19;20209;-76
2023/05/29 08:05:13;;;;;;;3.60;2.50;;;24.70;91.50;;;;;;7386371;19;20150;-78
2023/05/29 08:07:39;;;;;;;3.60;2.55;;;24.80;91.50;;;;;;7388730;19;20202;-82
2023/05/29 08:10:06;;;;;;;4.13;2.95;;;24.70;91.40;;;;;;7388722;19;20138;-79
2023/05/29 08:12:31;;;;;;;8.35;2.88;;;24.70;91.50;;;;;;7386927;19;20145;-78
2023/05/29 08:14:58;;;;;;;7.68;3.15;;;25.00;91.30;;;;;;7386095;19;20132;-79
2023/05/29 08:17:23;;;;;;;3.95;2.67;;;25.20;91.00;;;;;;7388823;19;20298;-82
2023/05/29 08:20:24;;;;;;;5.55;2.95;;;25.10;91.00;;;;;;7389936;19;21451;-81
2023/05/29 08:22:50;;;;;;;4.63;2.90;;;25.30;91.00;;;;;;7380360;19;20158;-79
2023/05/29 08:25:18;;;;;;;4.95;3.03;;;25.40;90.50;;;;;;7384027;19;20164;-76
2023/05/29 08:27:44;;;;;;;4.93;3.00;;;25.40;90.10;;;;;;7384830;19;20172;-80
2023/05/29 08:30:13;;;;;;;4.97;2.58;;;25.40;90.20;;;;;;7388192;19;20632;-81
2023/05/29 08:32:39;;;;;;;4.28;2.90;;;25.40;90.50;;;;;;7387801;19;20142;-78
2023/05/29 08:35:07;;;;;;;5.47;3.00;;;25.70;90.00;;;;;;7390903;19;20446;-78
2023/05/29 08:37:32;;;;;;;3.92;2.78;;;25.50;90.00;;;;;;7389538;19;20159;-77
2023/05/29 08:39:58;;;;;;;3.55;2.40;;;25.20;90.20;;;;;;7387698;19;20154;-78
2023/05/29 08:42:33;;;;;;;6.75;3.08;;;25.20;90.60;;;;;;7381024;19;20630;-79
2023/05/29 08:45:03;;;;;;;5.40;3.17;;;25.00;90.90;;;;;;7380048;19;20164;-79
2023/05/29 08:47:33;;;;;;;5.60;3.45;;;25.00;91.10;;;;;;7381644;19;20143;-80
2023/05/29 08:50:00;;;;;;;4.45;3.00;;;25.00;91.10;;;;;;7381428;19;20147;-79
2023/05/29 08:52:29;;;;;;;4.05;2.78;;;24.60;91.80;;;;;;7372611;19;20466;-78
2023/05/29 08:54:56;;;;;;;7.22;3.03;;;24.60;92.00;;;;;;7379346;19;20180;-78
2023/05/29 08:57:23;;;;;;;6.63;3.35;;;24.50;92.20;;;;;;7377246;19;20158;-79
2023/05/29 08:59:52;;;;;;;5.93;3.28;;;24.50;92.50;;;;;;7382154;19;20150;-77
2023/05/29 09:02:18;;;;;;;6.55;3.72;;;24.30;93.20;;;;;;7375505;19;20575;-80
2023/05/29 09:04:52;;;;;;;6.05;3.22;;;24.20;93.20;;;;;;7380343;19;20158;-78
2023/05/29 09:07:21;;;;;;;5.35;3.00;;;24.10;93.40;;;;;;7381243;19;20134;-80
2023/05/29 09:09:47;;;;;;;4.97;3.20;;;24.20;93.30;;;;;;7377996;19;20168;-80
2023/05/29 09:12:14;;;;;;;5.25;3.20;;;24.00;93.90;;;;;;7378585;19;20202;-79
2023/05/29 09:14:42;;;;;;;4.93;3.03;;;23.80;94.30;;;;;;7376950;19;20154;-79
2023/05/29 09:17:09;;;;;;;5.15;3.33;;;23.80;94.20;;;;;;7379226;19;20191;-79
2023/05/29 09:19:37;;;;;;;4.43;3.00;;;23.90;94.40;;;;;;7380732;19;20146;-79
2023/05/29 09:22:14;;;;;;;3.97;2.65;;;24.00;94.50;;;;;;7374994;19;20138;-81
2023/05/29 09:24:41;;;;;;;6.70;3.28;;;24.00;94.40;;;;;;7379968;19;20952;-79
2023/05/29 09:27:08;;;;;;;5.20;3.17;;;23.90;94.70;;;;;;7380353;19;20131;-80
2023/05/29 09:29:38;;;;;;;5.88;3.78;;;23.80;94.80;;;;;;7383295;19;20632;-77
2023/05/29 09:32:08;;;;;;;5.28;3.13;;;23.90;94.70;;;;;;7376910;19;20163;-77
2023/05/29 09:34:34;;;;;;;5.70;3.15;;;23.90;94.60;;;;;;7376827;19;20214;-75
2023/05/29 09:37:08;;;;;;;4.00;2.92;;;23.80;94.40;;;;;;7382607;19;20150;-78
2023/05/29 09:39:46;;;;;;;5.68;3.30;;;23.80;94.30;;;;;;7391355;19;20142;-76
2023/05/29 09:42:13;;;;;;;5.55;2.95;;;23.80;94.30;;;;;;7385364;19;20189;-76
2023/05/29 09:44:46;;;;;;;7.03;3.47;;;23.90;94.40;;;;;;7392494;19;20152;-76
2023/05/29 09:47:17;;;;;;;5.45;3.25;;;23.90;94.40;;;;;;7392858;19;20134;-79
2023/05/29 09:49:44;;;;;;;5.30;3.42;;;24.10;94.20;;;;;;7386953;19;20138;-76
2023/05/29 09:52:21;;;;;;;3.38;2.70;;;24.30;94.70;;;;;;7376881;19;20150;-78
2023/05/29 09:54:48;;;;;;;4.30;2.90;;;24.40;93.70;;;;;;7386301;19;20150;-75
2023/05/29 09:57:29;;;;;;;7.25;2.88;;;24.30;93.60;;;;;;7381704;19;20519;-73
2023/05/29 09:59:55;;;;;;;4.85;3.10;;;24.30;93.50;;;;;;7389239;19;20444;-75
2023/05/29 10:02:27;;;;;;;6.63;3.30;;;24.30;93.60;;;;;;7380384;19;20176;-75
2023/05/29 10:04:59;;;;;;;8.73;3.47;;;24.20;93.70;;;;;;7381903;19;20150;-78
2023/05/29 10:07:32;;;;;;;5.38;3.00;;;24.30;93.80;;;;;;7384589;19;20833;-75
2023/05/29 10:10:04;;;;;;;7.72;3.60;;;24.50;94.20;;;;;;7382111;19;20154;-74
2023/05/29 10:12:34;;;;;;;5.82;3.63;;;24.50;93.90;;;;;;7382897;19;20145;-75
2023/05/29 10:15:02;;;;;;;5.43;3.40;;;24.60;93.30;;;;;;7383716;19;20511;-75
2023/05/29 10:17:39;;;;;;;5.43;3.10;;;24.80;92.40;;;;;;7383290;19;20137;-76
2023/05/29 10:20:09;;;;;;;4.53;2.78;;;24.80;92.00;;;;;;7380683;19;20118;-75
2023/05/29 10:22:40;;;;;;;5.70;3.63;;;24.70;91.40;;;;;;7384031;19;20207;-78
2023/05/29 10:25:09;;;;;;;5.28;2.78;;;24.60;91.10;;;;;;7387128;19;20164;-80
2023/05/29 10:27:36;;;;;;;5.97;2.78;;;24.50;90.20;;;;;;7386444;19;20135;-79
2023/05/29 10:30:27;;;;;;;5.10;2.80;;;24.60;90.20;;;;;;7385774;19;20293;-80
2023/05/29 10:33:18;;;;;;;5.72;3.22;;;24.70;89.60;;;;;;7384197;19;20173;-82
2023/05/29 10:35:53;;;;;;;4.65;2.67;;;24.90;88.80;;;;;;7391848;19;20154;-79
2023/05/29 10:38:21;;;;;;;4.43;2.58;;;25.00;88.30;;;;;;7392977;19;20176;-79
2023/05/29 10:40:47;;;;;;;4.80;2.78;;;25.00;87.70;;;;;;7392546;19;20130;-80
2023/05/29 10:43:33;;;;;;;5.47;2.88;;;25.00;87.40;;;;;;7390374;19;20178;-80
2023/05/29 10:46:00;;;;;;;3.80;2.30;;;25.00;87.30;;;;;;7389715;19;20134;-82
2023/05/29 10:48:28;;;;;;;3.65;2.42;;;25.00;87.20;;;;;;7392361;19;20131;-81
2023/05/29 10:50:57;;;;;;;5.30;3.72;;;25.00;86.40;;;;;;7391426;19;20496;-79
2023/05/29 10:53:24;;;;;;;3.75;2.70;;;25.00;87.40;;;;;;7388237;19;20139;-82
2023/05/29 10:55:51;;;;;;;4.28;2.80;;;25.00;86.60;;;;;;7391703;19;20618;-81
2023/05/29 10:58:24;;;;;;;5.38;2.65;;;25.00;87.40;;;;;;7392687;19;20165;-81
2023/05/29 11:00:54;;;;;;;7.40;3.10;;;24.90;86.80;;;;;;7392335;19;20150;-80
2023/05/29 11:03:27;;;;;;;6.20;3.10;;;25.00;87.10;;;;;;7390506;19;20158;-82
2023/05/29 11:06:10;;;;;;;5.80;2.70;;;25.00;86.50;;;;;;7392655;19;20150;-82
2023/05/29 11:08:55;;;;;;;3.78;2.65;;;25.00;84.80;;;;;;7392934;19;20505;-82
2023/05/29 11:11:27;;;;;;;3.85;2.58;;;24.90;85.40;;;;;;7391752;19;20218;-79
2023/05/29 11:13:54;;;;;;;3.83;2.33;;;24.90;85.50;;;;;;7388958;19;20146;-86
2023/05/29 11:16:29;;;;;;;4.63;2.53;;;24.90;86.30;;;;;;7387829;19;20221;-79
2023/05/29 11:18:56;;;;;;;7.30;3.10;;;24.90;86.80;;;;;;7390696;19;20134;-81
2023/05/29 11:21:41;;;;;;;6.38;3.03;;;25.10;86.30;;;;;;7390836;19;20138;-81
2023/05/29 11:24:07;;;;;;;4.68;2.65;;;25.20;84.80;;;;;;7390708;19;20165;-83
2023/05/29 11:26:34;;;;;;;3.53;2.28;;;25.20;84.20;;;;;;7392817;19;20217;-80
2023/05/29 11:29:06;;;;;;;4.07;2.38;;;25.10;84.20;;;;;;7392697;19;20692;-78
2023/05/29 11:31:34;;;;;;;3.08;2.78;;;25.00;83.70;;;;;;7391104;19;20154;-78
2023/05/29 11:34:04;;;;;;;3.60;2.50;;;25.10;83.90;;;;;;7389399;19;20151;-78
2023/05/29 11:36:32;;;;;;;4.43;2.58;;;25.20;83.00;;;;;;7390304;19;20206;-79
2023/05/29 11:38:59;;;;;;;3.53;2.38;;;25.30;85.10;;;;;;7390214;19;20253;-79
2023/05/29 11:41:25;;;;;;;4.25;2.40;;;25.50;82.50;;;;;;7389945;19;20642;-77
2023/05/29 11:44:03;;;;;;;4.18;2.47;;;25.60;81.50;;;;;;7391149;19;20146;-79
2023/05/29 11:46:32;;;;;;;8.02;2.45;;;25.50;80.70;;;;;;7389433;19;20681;-80
2023/05/29 11:49:01;;;;;;;5.30;2.67;;;25.50;80.80;;;;;;7389448;19;20142;-79
2023/05/29 11:51:28;;;;;;;3.35;2.47;;;25.50;79.20;;;;;;7387883;19;20146;-78
2023/05/29 11:53:58;;;;;;;3.60;2.40;;;25.50;78.50;;;;;;7386988;19;20738;-79
2023/05/29 11:56:25;;;;;;;5.50;2.60;;;25.40;77.80;;;;;;7389351;19;20169;-79
2023/05/29 11:58:55;;;;;;;5.88;2.83;;;25.40;77.30;;;;;;7387155;19;20146;-79
2023/05/29 12:01:21;;;;;;;3.70;2.40;;;25.40;77.00;;;;;;7388508;19;20611;-79
2023/05/29 12:03:47;;;;;;;4.22;2.53;;;25.50;76.70;;;;;;7386933;19;20480;-81
2023/05/29 12:06:12;;;;;;;3.58;2.08;;;25.60;75.60;;;;;;7390815;19;20137;-79
2023/05/29 12:08:39;;;;;;;5.70;3.10;;;25.50;75.20;;;;;;7387047;19;20135;-79
2023/05/29 12:11:05;;;;;;;5.50;2.72;;;25.50;75.40;;;;;;7388602;19;20662;-82
2023/05/29 12:13:31;;;;;;;4.53;2.38;;;25.50;75.70;;;;;;7388567;19;20159;-78
2023/05/29 12:16:03;;;;;;;3.17;2.00;;;25.70;75.30;;;;;;7382549;19;20160;-78
2023/05/29 12:18:29;;;;;;;3.55;2.28;;;25.80;75.00;;;;;;7382885;19;20269;-78
2023/05/29 12:21:00;;;;;;;5.00;2.35;;;25.80;73.70;;;;;;7377952;19;20146;-77
2023/05/29 12:23:28;;;;;;;3.80;2.33;;;25.70;75.90;;;;;;7379449;19;20143;-77
2023/05/29 12:25:54;;;;;;;3.65;2.33;;;25.80;75.20;;;;;;7388731;19;20146;-78
2023/05/29 12:28:21;;;;;;;3.78;2.53;;;25.90;73.20;;;;;;7388105;19;20150;-78
2023/05/29 12:30:51;;;;;;;3.33;2.17;;;26.00;71.80;;;;;;7389340;19;20146;-80
2023/05/29 12:33:31;;;;;;;2.22;1.98;;;25.90;71.90;;;;;;7388985;19;20230;-82
2023/05/29 12:36:09;;;;;;;3.20;2.05;;;25.90;71.30;;;;;;7389188;19;20146;-77
2023/05/29 12:38:50;;;;;;;3.25;2.67;;;25.90;70.80;;;;;;7382181;19;20139;-79
2023/05/29 12:41:34;;;;;;;2.72;1.90;;;25.90;70.60;;;;;;7389236;19;20159;-78
2023/05/29 12:44:03;;;;;;;3.00;2.20;;;25.90;72.40;;;;;;7388003;19;20519;-79
2023/05/29 12:46:39;;;;;;;3.67;2.40;;;26.00;70.10;;;;;;7388117;19;20139;-79
2023/05/29 12:49:23;;;;;;;2.92;2.20;;;26.00;69.80;;;;;;7388774;19;20134;-77
2023/05/29 12:51:49;;;;;;;3.20;2.08;;;25.90;70.30;;;;;;7388065;19;20134;-76
2023/05/29 12:54:16;;;;;;;3.83;2.00;;;26.00;70.60;;;;;;7387093;19;20138;-77